sensor_id;sensor_type;location;lat;lon;timestamp;temperature;humidity
32614;DHT22;19031;51.400;6.770;2022-11-15T00:01:23;10.50;99.90
32614;DHT22;19031;51.400;6.770;2022-11-15T00:03:50;10.50;99.90
32614;DHT22;19031;51.400;6.770;2022-11-15T00:06:16;10.60;99.90
32614;DHT22;19031;51.400;6.770;2022-11-15T00:08:41;10.70;99.90
32614;DHT22;19031;51.400;6.770;2022-11-15T00:11:08;10.60;99.90
32614;DHT22;19031;51.400;6.770;2022-11-15T00:13:35;10.60;99.90
32614;DHT22;19031;51.400;6.770;2022-11-15T00:16:00;10.60;99.90
32614;DHT22;19031;51.400;6.770;2022-11-15T00:18:26;10.70;99.90
32614;DHT22;19031;51.400;6.770;2022-11-15T00:20:52;10.70;99.90
32614;DHT22;19031;51.400;6.770;2022-11-15T00:23:17;10.80;99.90
32614;DHT22;19031;51.400;6.770;2022-11-15T00:25:43;10.70;99.90
32614;DHT22;19031;51.400;6.770;2022-11-15T00:28:08;10.70;99.90
32614;DHT22;19031;51.400;6.770;2022-11-15T00:30:34;10.80;99.90
32614;DHT22;19031;51.400;6.770;2022-11-15T00:33:03;10.90;99.90
32614;DHT22;19031;51.400;6.770;2022-11-15T00:35:30;10.90;99.90
32614;DHT22;19031;51.400;6.770;2022-11-15T00:37:56;10.90;99.90
32614;DHT22;19031;51.400;6.770;2022-11-15T00:40:22;10.90;99.90
32614;DHT22;19031;51.400;6.770;2022-11-15T00:42:47;10.90;99.90
32614;DHT22;19031;51.400;6.770;2022-11-15T00:45:13;10.90;99.90
32614;DHT22;19031;51.400;6.770;2022-11-15T00:47:39;11.00;99.90
32614;DHT22;19031;51.400;6.770;2022-11-15T00:50:04;11.00;99.90
32614;DHT22;19031;51.400;6.770;2022-11-15T00:52:30;11.10;99.90
32614;DHT22;19031;51.400;6.770;2022-11-15T00:54:58;11.10;99.90
32614;DHT22;19031;51.400;6.770;2022-11-15T00:57:24;11.10;99.90
32614;DHT22;19031;51.400;6.770;2022-11-15T00:59:49;11.10;99.90
32614;DHT22;19031;51.400;6.770;2022-11-15T01:02:18;11.20;99.90
32614;DHT22;19031;51.400;6.770;2022-11-15T01:04:43;11.10;99.90
32614;DHT22;19031;51.400;6.770;2022-11-15T01:07:09;11.20;99.90
32614;DHT22;19031;51.400;6.770;2022-11-15T01:09:34;11.10;99.90
32614;DHT22;19031;51.400;6.770;2022-11-15T01:12:00;11.20;99.90
32614;DHT22;19031;51.400;6.770;2022-11-15T01:14:25;11.30;99.90
32614;DHT22;19031;51.400;6.770;2022-11-15T01:16:51;11.40;99.90
32614;DHT22;19031;51.400;6.770;2022-11-15T01:19:16;11.40;99.90
32614;DHT22;19031;51.400;6.770;2022-11-15T01:21:42;11.40;99.90
32614;DHT22;19031;51.400;6.770;2022-11-15T01:24:07;11.40;99.90
32614;DHT22;19031;51.400;6.770;2022-11-15T01:26:34;11.50;99.90
32614;DHT22;19031;51.400;6.770;2022-11-15T01:28:59;11.50;99.90
32614;DHT22;19031;51.400;6.770;2022-11-15T01:31:25;11.50;99.90
32614;DHT22;19031;51.400;6.770;2022-11-15T01:33:50;11.60;99.90
32614;DHT22;19031;51.400;6.770;2022-11-15T01:36:17;11.60;99.90
32614;DHT22;19031;51.400;6.770;2022-11-15T01:38:43;11.60;99.90
32614;DHT22;19031;51.400;6.770;2022-11-15T01:41:15;11.60;99.90
32614;DHT22;19031;51.400;6.770;2022-11-15T01:43:41;11.70;99.90
32614;DHT22;19031;51.400;6.770;2022-11-15T01:48:52;11.60;99.90
32614;DHT22;19031;51.400;6.770;2022-11-15T01:51:19;11.60;99.90
32614;DHT22;19031;51.400;6.770;2022-11-15T01:53:46;11.60;99.90
32614;DHT22;19031;51.400;6.770;2022-11-15T01:56:14;11.70;99.90
32614;DHT22;19031;51.400;6.770;2022-11-15T01:58:41;11.60;99.90
32614;DHT22;19031;51.400;6.770;2022-11-15T02:01:08;11.70;99.90
32614;DHT22;19031;51.400;6.770;2022-11-15T02:03:39;11.60;99.90
32614;DHT22;19031;51.400;6.770;2022-11-15T02:06:06;11.60;99.90
32614;DHT22;19031;51.400;6.770;2022-11-15T02:08:32;11.60;99.90
32614;DHT22;19031;51.400;6.770;2022-11-15T02:10:57;11.60;99.90
32614;DHT22;19031;51.400;6.770;2022-11-15T02:13:22;11.70;99.90
32614;DHT22;19031;51.400;6.770;2022-11-15T02:18:32;11.70;99.90
32614;DHT22;19031;51.400;6.770;2022-11-15T02:21:00;11.80;99.90
32614;DHT22;19031;51.400;6.770;2022-11-15T02:36:17;11.80;99.90
32614;DHT22;19031;51.400;6.770;2022-11-15T02:38:47;11.80;99.90
32614;DHT22;19031;51.400;6.770;2022-11-15T02:41:20;11.80;99.90
32614;DHT22;19031;51.400;6.770;2022-11-15T02:43:56;11.90;99.90
32614;DHT22;19031;51.400;6.770;2022-11-15T02:46:36;11.90;99.90
32614;DHT22;19031;51.400;6.770;2022-11-15T02:49:23;11.90;99.90
32614;DHT22;19031;51.400;6.770;2022-11-15T02:51:49;12.00;99.90
32614;DHT22;19031;51.400;6.770;2022-11-15T02:54:23;12.00;99.90
32614;DHT22;19031;51.400;6.770;2022-11-15T02:56:49;11.90;99.90
32614;DHT22;19031;51.400;6.770;2022-11-15T02:59:20;12.00;99.90
32614;DHT22;19031;51.400;6.770;2022-11-15T03:07:05;12.00;99.90
32614;DHT22;19031;51.400;6.770;2022-11-15T03:12:25;12.10;99.90
32614;DHT22;19031;51.400;6.770;2022-11-15T03:17:28;12.20;99.90
32614;DHT22;19031;51.400;6.770;2022-11-15T03:19:58;12.20;99.90
32614;DHT22;19031;51.400;6.770;2022-11-15T03:22:25;12.20;99.90
32614;DHT22;19031;51.400;6.770;2022-11-15T03:24:55;12.20;99.90
32614;DHT22;19031;51.400;6.770;2022-11-15T03:27:23;12.30;99.90
32614;DHT22;19031;51.400;6.770;2022-11-15T03:29:54;12.20;99.90
32614;DHT22;19031;51.400;6.770;2022-11-15T03:32:23;12.30;99.90
32614;DHT22;19031;51.400;6.770;2022-11-15T03:37:20;12.30;99.90
32614;DHT22;19031;51.400;6.770;2022-11-15T03:39:45;12.40;99.90
32614;DHT22;19031;51.400;6.770;2022-11-15T03:42:22;12.40;99.90
32614;DHT22;19031;51.400;6.770;2022-11-15T03:47:19;12.50;99.90
32614;DHT22;19031;51.400;6.770;2022-11-15T03:49:49;12.40;99.90
32614;DHT22;19031;51.400;6.770;2022-11-15T03:52:19;12.40;99.90
32614;DHT22;19031;51.400;6.770;2022-11-15T03:54:55;12.50;99.90
32614;DHT22;19031;51.400;6.770;2022-11-15T03:57:20;12.40;99.90
32614;DHT22;19031;51.400;6.770;2022-11-15T03:59:46;12.60;99.90
32614;DHT22;19031;51.400;6.770;2022-11-15T04:02:12;12.60;99.90
32614;DHT22;19031;51.400;6.770;2022-11-15T04:04:37;12.60;99.90
32614;DHT22;19031;51.400;6.770;2022-11-15T04:07:03;12.60;99.90
32614;DHT22;19031;51.400;6.770;2022-11-15T04:09:29;12.60;99.90
32614;DHT22;19031;51.400;6.770;2022-11-15T04:11:54;12.50;99.90
32614;DHT22;19031;51.400;6.770;2022-11-15T04:14:20;12.60;99.90
32614;DHT22;19031;51.400;6.770;2022-11-15T04:16:45;12.60;99.90
32614;DHT22;19031;51.400;6.770;2022-11-15T04:19:10;12.60;99.90
32614;DHT22;19031;51.400;6.770;2022-11-15T04:21:55;12.60;99.90
32614;DHT22;19031;51.400;6.770;2022-11-15T04:24:39;12.60;99.90
32614;DHT22;19031;51.400;6.770;2022-11-15T04:27:04;12.60;99.90
32614;DHT22;19031;51.400;6.770;2022-11-15T04:29:30;12.60;99.90
32614;DHT22;19031;51.400;6.770;2022-11-15T04:32:05;12.60;99.90
32614;DHT22;19031;51.400;6.770;2022-11-15T04:34:30;12.70;99.90
32614;DHT22;19031;51.400;6.770;2022-11-15T04:36:56;12.70;99.90
32614;DHT22;19031;51.400;6.770;2022-11-15T04:39:37;12.70;99.90
32614;DHT22;19031;51.400;6.770;2022-11-15T04:42:02;12.80;99.90
32614;DHT22;19031;51.400;6.770;2022-11-15T04:44:28;12.80;99.90
32614;DHT22;19031;51.400;6.770;2022-11-15T04:46:53;12.80;99.90
32614;DHT22;19031;51.400;6.770;2022-11-15T04:49:18;12.70;99.90
32614;DHT22;19031;51.400;6.770;2022-11-15T04:51:44;12.80;99.90
32614;DHT22;19031;51.400;6.770;2022-11-15T04:54:09;12.70;99.90
32614;DHT22;19031;51.400;6.770;2022-11-15T04:56:35;12.80;99.90
32614;DHT22;19031;51.400;6.770;2022-11-15T04:59:00;12.80;99.90
32614;DHT22;19031;51.400;6.770;2022-11-15T05:01:26;12.80;99.90
32614;DHT22;19031;51.400;6.770;2022-11-15T05:03:51;12.70;99.90
32614;DHT22;19031;51.400;6.770;2022-11-15T05:06:35;12.80;99.90
32614;DHT22;19031;51.400;6.770;2022-11-15T05:09:01;12.90;99.90
32614;DHT22;19031;51.400;6.770;2022-11-15T05:11:26;12.90;99.90
32614;DHT22;19031;51.400;6.770;2022-11-15T05:13:52;12.80;99.90
32614;DHT22;19031;51.400;6.770;2022-11-15T05:16:18;12.70;99.90
32614;DHT22;19031;51.400;6.770;2022-11-15T05:18:43;12.70;99.90
32614;DHT22;19031;51.400;6.770;2022-11-15T05:21:13;12.70;99.90
32614;DHT22;19031;51.400;6.770;2022-11-15T05:23:39;12.80;99.90
32614;DHT22;19031;51.400;6.770;2022-11-15T05:26:04;12.80;99.90
32614;DHT22;19031;51.400;6.770;2022-11-15T05:28:30;12.70;99.90
32614;DHT22;19031;51.400;6.770;2022-11-15T05:31:00;12.70;99.90
32614;DHT22;19031;51.400;6.770;2022-11-15T05:33:25;12.70;99.90
32614;DHT22;19031;51.400;6.770;2022-11-15T05:35:54;12.70;99.90
32614;DHT22;19031;51.400;6.770;2022-11-15T05:38:20;12.70;99.90
32614;DHT22;19031;51.400;6.770;2022-11-15T05:40:45;12.70;99.90
32614;DHT22;19031;51.400;6.770;2022-11-15T05:43:11;12.70;99.90
32614;DHT22;19031;51.400;6.770;2022-11-15T05:45:37;12.70;99.90
32614;DHT22;19031;51.400;6.770;2022-11-15T05:48:04;12.70;99.90
32614;DHT22;19031;51.400;6.770;2022-11-15T05:50:31;12.70;99.90
32614;DHT22;19031;51.400;6.770;2022-11-15T05:52:56;12.80;99.90
32614;DHT22;19031;51.400;6.770;2022-11-15T05:55:22;12.70;99.90
32614;DHT22;19031;51.400;6.770;2022-11-15T05:57:47;12.70;99.90
32614;DHT22;19031;51.400;6.770;2022-11-15T06:00:13;12.70;99.90
32614;DHT22;19031;51.400;6.770;2022-11-15T06:02:38;12.60;99.90
32614;DHT22;19031;51.400;6.770;2022-11-15T06:05:04;12.60;99.90
32614;DHT22;19031;51.400;6.770;2022-11-15T06:07:30;12.60;99.90
32614;DHT22;19031;51.400;6.770;2022-11-15T06:09:55;12.60;99.90
32614;DHT22;19031;51.400;6.770;2022-11-15T06:12:21;12.60;99.90
32614;DHT22;19031;51.400;6.770;2022-11-15T06:14:46;12.60;99.90
32614;DHT22;19031;51.400;6.770;2022-11-15T06:17:12;12.60;99.90
32614;DHT22;19031;51.400;6.770;2022-11-15T06:19:37;12.60;99.90
32614;DHT22;19031;51.400;6.770;2022-11-15T06:22:03;12.60;99.90
32614;DHT22;19031;51.400;6.770;2022-11-15T06:24:28;12.60;99.90
32614;DHT22;19031;51.400;6.770;2022-11-15T06:26:54;12.60;99.90
32614;DHT22;19031;51.400;6.770;2022-11-15T06:29:19;12.60;99.90
32614;DHT22;19031;51.400;6.770;2022-11-15T06:31:45;12.70;99.90
32614;DHT22;19031;51.400;6.770;2022-11-15T06:34:10;12.60;99.90
32614;DHT22;19031;51.400;6.770;2022-11-15T06:36:36;12.50;99.90
32614;DHT22;19031;51.400;6.770;2022-11-15T06:39:02;12.60;99.90
32614;DHT22;19031;51.400;6.770;2022-11-15T06:41:28;12.60;99.90
32614;DHT22;19031;51.400;6.770;2022-11-15T06:43:53;12.60;99.90
32614;DHT22;19031;51.400;6.770;2022-11-15T06:46:19;12.60;99.90
32614;DHT22;19031;51.400;6.770;2022-11-15T06:48:44;12.60;99.90
32614;DHT22;19031;51.400;6.770;2022-11-15T06:51:09;12.60;99.90
32614;DHT22;19031;51.400;6.770;2022-11-15T06:53:35;12.60;99.90
32614;DHT22;19031;51.400;6.770;2022-11-15T06:56:01;12.60;99.90
32614;DHT22;19031;51.400;6.770;2022-11-15T06:58:27;12.60;99.90
32614;DHT22;19031;51.400;6.770;2022-11-15T07:00:52;12.60;99.90
32614;DHT22;19031;51.400;6.770;2022-11-15T07:03:18;12.50;99.90
32614;DHT22;19031;51.400;6.770;2022-11-15T07:05:50;12.60;99.90
32614;DHT22;19031;51.400;6.770;2022-11-15T07:08:16;12.60;99.90
32614;DHT22;19031;51.400;6.770;2022-11-15T07:10:41;12.50;99.90
32614;DHT22;19031;51.400;6.770;2022-11-15T07:13:07;12.60;99.90
32614;DHT22;19031;51.400;6.770;2022-11-15T07:15:32;12.60;99.90
32614;DHT22;19031;51.400;6.770;2022-11-15T07:18:00;12.60;99.90
32614;DHT22;19031;51.400;6.770;2022-11-15T07:20:25;12.60;99.90
32614;DHT22;19031;51.400;6.770;2022-11-15T07:22:51;12.60;99.90
32614;DHT22;19031;51.400;6.770;2022-11-15T07:25:24;12.50;99.90
32614;DHT22;19031;51.400;6.770;2022-11-15T07:27:56;12.70;99.90
32614;DHT22;19031;51.400;6.770;2022-11-15T07:30:22;12.60;99.90
32614;DHT22;19031;51.400;6.770;2022-11-15T07:32:51;12.70;99.90
32614;DHT22;19031;51.400;6.770;2022-11-15T07:35:17;12.60;99.90
32614;DHT22;19031;51.400;6.770;2022-11-15T07:37:42;12.70;99.90
32614;DHT22;19031;51.400;6.770;2022-11-15T07:40:08;12.60;99.90
32614;DHT22;19031;51.400;6.770;2022-11-15T07:42:34;12.60;99.90
32614;DHT22;19031;51.400;6.770;2022-11-15T07:45:17;12.70;99.90
32614;DHT22;19031;51.400;6.770;2022-11-15T07:47:46;12.70;99.90
32614;DHT22;19031;51.400;6.770;2022-11-15T07:50:12;12.70;99.90
32614;DHT22;19031;51.400;6.770;2022-11-15T07:52:37;12.70;99.90
32614;DHT22;19031;51.400;6.770;2022-11-15T07:55:03;12.70;99.90
32614;DHT22;19031;51.400;6.770;2022-11-15T07:57:29;12.80;99.90
32614;DHT22;19031;51.400;6.770;2022-11-15T07:59:54;12.60;99.90
32614;DHT22;19031;51.400;6.770;2022-11-15T08:02:20;12.50;99.90
32614;DHT22;19031;51.400;6.770;2022-11-15T08:04:45;12.30;99.90
32614;DHT22;19031;51.400;6.770;2022-11-15T08:07:11;12.30;99.90
32614;DHT22;19031;51.400;6.770;2022-11-15T08:09:36;12.20;99.90
32614;DHT22;19031;51.400;6.770;2022-11-15T08:12:02;12.10;99.90
32614;DHT22;19031;51.400;6.770;2022-11-15T08:14:27;12.00;99.90
32614;DHT22;19031;51.400;6.770;2022-11-15T08:16:54;12.00;99.90
32614;DHT22;19031;51.400;6.770;2022-11-15T08:19:19;12.00;99.90
32614;DHT22;19031;51.400;6.770;2022-11-15T08:21:45;12.10;99.90
32614;DHT22;19031;51.400;6.770;2022-11-15T08:24:10;12.00;99.90
32614;DHT22;19031;51.400;6.770;2022-11-15T08:26:36;12.10;99.90
32614;DHT22;19031;51.400;6.770;2022-11-15T08:29:02;11.90;99.90
32614;DHT22;19031;51.400;6.770;2022-11-15T08:31:27;12.00;99.90
32614;DHT22;19031;51.400;6.770;2022-11-15T08:33:52;12.00;99.90
32614;DHT22;19031;51.400;6.770;2022-11-15T08:36:19;12.00;99.90
32614;DHT22;19031;51.400;6.770;2022-11-15T08:38:44;12.20;99.90
32614;DHT22;19031;51.400;6.770;2022-11-15T08:41:11;12.10;99.90
32614;DHT22;19031;51.400;6.770;2022-11-15T08:43:38;12.20;99.90
32614;DHT22;19031;51.400;6.770;2022-11-15T08:46:03;12.20;99.90
32614;DHT22;19031;51.400;6.770;2022-11-15T08:48:29;12.10;99.90
32614;DHT22;19031;51.400;6.770;2022-11-15T08:50:55;12.20;99.90
32614;DHT22;19031;51.400;6.770;2022-11-15T08:53:20;12.30;99.90
32614;DHT22;19031;51.400;6.770;2022-11-15T08:55:46;12.30;99.90
32614;DHT22;19031;51.400;6.770;2022-11-15T08:58:11;12.40;99.90
32614;DHT22;19031;51.400;6.770;2022-11-15T09:00:37;12.40;99.90
32614;DHT22;19031;51.400;6.770;2022-11-15T09:03:05;12.50;99.90
32614;DHT22;19031;51.400;6.770;2022-11-15T09:05:31;12.50;99.90
32614;DHT22;19031;51.400;6.770;2022-11-15T09:07:57;12.50;99.90
32614;DHT22;19031;51.400;6.770;2022-11-15T09:10:22;12.50;99.90
32614;DHT22;19031;51.400;6.770;2022-11-15T09:12:48;12.60;99.90
32614;DHT22;19031;51.400;6.770;2022-11-15T09:15:14;12.60;99.90
32614;DHT22;19031;51.400;6.770;2022-11-15T09:17:39;12.80;99.90
32614;DHT22;19031;51.400;6.770;2022-11-15T09:20:05;12.90;99.90
32614;DHT22;19031;51.400;6.770;2022-11-15T09:22:31;13.00;99.20
32614;DHT22;19031;51.400;6.770;2022-11-15T09:24:56;13.20;98.10
32614;DHT22;19031;51.400;6.770;2022-11-15T09:27:22;13.30;95.90
32614;DHT22;19031;51.400;6.770;2022-11-15T09:29:50;13.40;94.40
32614;DHT22;19031;51.400;6.770;2022-11-15T09:32:15;13.40;92.30
32614;DHT22;19031;51.400;6.770;2022-11-15T09:34:41;13.50;91.50
32614;DHT22;19031;51.400;6.770;2022-11-15T09:37:06;13.50;91.90
32614;DHT22;19031;51.400;6.770;2022-11-15T09:39:37;13.40;89.50
32614;DHT22;19031;51.400;6.770;2022-11-15T09:42:17;13.40;88.60
32614;DHT22;19031;51.400;6.770;2022-11-15T09:44:49;13.40;84.70
32614;DHT22;19031;51.400;6.770;2022-11-15T09:50:07;13.30;79.90
32614;DHT22;19031;51.400;6.770;2022-11-15T09:52:33;13.40;76.60
32614;DHT22;19031;51.400;6.770;2022-11-15T09:55:00;13.40;73.90
32614;DHT22;19031;51.400;6.770;2022-11-15T10:05:11;13.40;66.60
32614;DHT22;19031;51.400;6.770;2022-11-15T10:07:41;13.60;56.50
32614;DHT22;19031;51.400;6.770;2022-11-15T10:10:15;14.30;52.10
32614;DHT22;19031;51.400;6.770;2022-11-15T10:12:46;15.20;8.80
32614;DHT22;19031;51.400;6.770;2022-11-15T10:15:14;16.00;1.00
32614;DHT22;19031;51.400;6.770;2022-11-15T10:20:29;16.60;1.00
32614;DHT22;19031;51.400;6.770;2022-11-15T10:22:56;17.30;1.00
32614;DHT22;19031;51.400;6.770;2022-11-15T10:25:27;17.80;99.90
32614;DHT22;19031;51.400;6.770;2022-11-15T10:27:55;18.40;99.90
32614;DHT22;19031;51.400;6.770;2022-11-15T10:30:28;18.80;99.90
32614;DHT22;19031;51.400;6.770;2022-11-15T10:32:58;18.70;99.90
32614;DHT22;19031;51.400;6.770;2022-11-15T10:35:28;18.90;99.90
32614;DHT22;19031;51.400;6.770;2022-11-15T10:38:07;18.90;99.90
32614;DHT22;19031;51.400;6.770;2022-11-15T10:40:33;18.70;99.90
32614;DHT22;19031;51.400;6.770;2022-11-15T10:43:12;18.70;99.90
32614;DHT22;19031;51.400;6.770;2022-11-15T10:45:38;18.80;99.90
32614;DHT22;19031;51.400;6.770;2022-11-15T10:50:38;18.80;99.90
32614;DHT22;19031;51.400;6.770;2022-11-15T10:53:10;17.80;99.90
32614;DHT22;19031;51.400;6.770;2022-11-15T10:55:40;16.80;99.90
32614;DHT22;19031;51.400;6.770;2022-11-15T10:58:19;16.40;99.90
32614;DHT22;19031;51.400;6.770;2022-11-15T11:00:46;15.70;1.00
32614;DHT22;19031;51.400;6.770;2022-11-15T11:03:25;15.50;1.00
32614;DHT22;19031;51.400;6.770;2022-11-15T11:06:02;15.30;1.00
32614;DHT22;19031;51.400;6.770;2022-11-15T11:08:31;15.00;1.00
32614;DHT22;19031;51.400;6.770;2022-11-15T11:10:58;14.70;1.00
32614;DHT22;19031;51.400;6.770;2022-11-15T11:15:55;14.50;1.00
32614;DHT22;19031;51.400;6.770;2022-11-15T11:18:37;14.30;1.00
32614;DHT22;19031;51.400;6.770;2022-11-15T11:21:17;14.30;1.00
32614;DHT22;19031;51.400;6.770;2022-11-15T11:24:00;14.20;1.00
32614;DHT22;19031;51.400;6.770;2022-11-15T11:29:08;14.00;1.00
32614;DHT22;19031;51.400;6.770;2022-11-15T11:39:39;13.70;1.00
32614;DHT22;19031;51.400;6.770;2022-11-15T11:42:10;13.70;1.00
32614;DHT22;19031;51.400;6.770;2022-11-15T11:47:11;13.80;1.00
32614;DHT22;19031;51.400;6.770;2022-11-15T11:49:49;13.80;1.00
32614;DHT22;19031;51.400;6.770;2022-11-15T11:52:29;13.80;1.00
32614;DHT22;19031;51.400;6.770;2022-11-15T11:57:43;13.80;1.00
32614;DHT22;19031;51.400;6.770;2022-11-15T12:02:38;13.90;1.00
32614;DHT22;19031;51.400;6.770;2022-11-15T12:05:18;13.80;1.00
32614;DHT22;19031;51.400;6.770;2022-11-15T12:07:45;13.90;1.00
32614;DHT22;19031;51.400;6.770;2022-11-15T12:15:36;13.80;1.00
32614;DHT22;19031;51.400;6.770;2022-11-15T12:18:02;13.80;1.00
32614;DHT22;19031;51.400;6.770;2022-11-15T12:20:33;13.80;99.90
32614;DHT22;19031;51.400;6.770;2022-11-15T12:23:03;13.80;1.00
32614;DHT22;19031;51.400;6.770;2022-11-15T12:25:30;13.90;1.00
32614;DHT22;19031;51.400;6.770;2022-11-15T12:28:07;14.00;1.00
32614;DHT22;19031;51.400;6.770;2022-11-15T12:30:40;13.80;1.00
32614;DHT22;19031;51.400;6.770;2022-11-15T12:33:15;13.80;99.90
32614;DHT22;19031;51.400;6.770;2022-11-15T12:35:59;13.70;99.90
32614;DHT22;19031;51.400;6.770;2022-11-15T12:41:14;13.80;99.90
32614;DHT22;19031;51.400;6.770;2022-11-15T12:43:41;13.90;99.90
32614;DHT22;19031;51.400;6.770;2022-11-15T12:46:21;13.90;99.90
32614;DHT22;19031;51.400;6.770;2022-11-15T12:48:54;13.90;99.90
32614;DHT22;19031;51.400;6.770;2022-11-15T12:51:20;14.00;99.90
32614;DHT22;19031;51.400;6.770;2022-11-15T12:53:46;14.00;99.90
32614;DHT22;19031;51.400;6.770;2022-11-15T13:06:40;14.10;99.90
32614;DHT22;19031;51.400;6.770;2022-11-15T13:11:51;14.10;1.00
32614;DHT22;19031;51.400;6.770;2022-11-15T13:14:38;14.10;1.00
32614;DHT22;19031;51.400;6.770;2022-11-15T13:19:47;14.10;1.00
32614;DHT22;19031;51.400;6.770;2022-11-15T13:22:13;14.20;1.00
32614;DHT22;19031;51.400;6.770;2022-11-15T13:24:58;14.10;1.00
32614;DHT22;19031;51.400;6.770;2022-11-15T13:27:24;14.10;1.00
32614;DHT22;19031;51.400;6.770;2022-11-15T13:29:49;14.20;1.00
32614;DHT22;19031;51.400;6.770;2022-11-15T13:32:15;14.20;1.00
32614;DHT22;19031;51.400;6.770;2022-11-15T13:34:44;14.30;1.00
32614;DHT22;19031;51.400;6.770;2022-11-15T13:37:33;14.40;1.00
32614;DHT22;19031;51.400;6.770;2022-11-15T13:42:45;14.30;1.00
32614;DHT22;19031;51.400;6.770;2022-11-15T13:45:13;14.40;1.00
32614;DHT22;19031;51.400;6.770;2022-11-15T13:47:38;14.40;1.00
32614;DHT22;19031;51.400;6.770;2022-11-15T13:50:10;14.40;1.00
32614;DHT22;19031;51.400;6.770;2022-11-15T13:52:36;14.50;1.00
32614;DHT22;19031;51.400;6.770;2022-11-15T13:57:29;14.70;1.00
32614;DHT22;19031;51.400;6.770;2022-11-15T14:00:03;14.80;1.00
32614;DHT22;19031;51.400;6.770;2022-11-15T14:02:30;14.60;1.00
32614;DHT22;19031;51.400;6.770;2022-11-15T14:04:58;14.80;1.00
32614;DHT22;19031;51.400;6.770;2022-11-15T14:07:30;14.80;1.00
32614;DHT22;19031;51.400;6.770;2022-11-15T14:09:55;14.70;1.00
32614;DHT22;19031;51.400;6.770;2022-11-15T14:14:47;14.80;1.00
32614;DHT22;19031;51.400;6.770;2022-11-15T14:17:19;14.80;1.00
32614;DHT22;19031;51.400;6.770;2022-11-15T14:19:44;14.60;1.00
32614;DHT22;19031;51.400;6.770;2022-11-15T14:22:10;14.50;1.00
32614;DHT22;19031;51.400;6.770;2022-11-15T14:24:36;14.60;1.00
32614;DHT22;19031;51.400;6.770;2022-11-15T14:29:46;14.40;1.00
32614;DHT22;19031;51.400;6.770;2022-11-15T14:32:17;14.50;1.00
32614;DHT22;19031;51.400;6.770;2022-11-15T14:34:43;14.40;1.00
32614;DHT22;19031;51.400;6.770;2022-11-15T14:37:19;14.40;1.00
32614;DHT22;19031;51.400;6.770;2022-11-15T14:39:46;14.30;1.00
32614;DHT22;19031;51.400;6.770;2022-11-15T14:42:11;14.30;1.00
32614;DHT22;19031;51.400;6.770;2022-11-15T14:44:42;14.20;1.00
32614;DHT22;19031;51.400;6.770;2022-11-15T14:47:18;14.00;1.00
32614;DHT22;19031;51.400;6.770;2022-11-15T14:49:51;14.00;1.00
32614;DHT22;19031;51.400;6.770;2022-11-15T14:52:24;14.10;1.00
32614;DHT22;19031;51.400;6.770;2022-11-15T14:54:50;13.90;1.00
32614;DHT22;19031;51.400;6.770;2022-11-15T14:57:18;14.00;1.00
32614;DHT22;19031;51.400;6.770;2022-11-15T14:59:44;14.40;5.10
32614;DHT22;19031;51.400;6.770;2022-11-15T15:02:16;13.70;5.60
32614;DHT22;19031;51.400;6.770;2022-11-15T15:04:42;13.80;6.70
32614;DHT22;19031;51.400;6.770;2022-11-15T15:07:08;14.00;8.70
32614;DHT22;19031;51.400;6.770;2022-11-15T15:09:33;13.90;10.20
32614;DHT22;19031;51.400;6.770;2022-11-15T15:11:59;13.80;8.60
32614;DHT22;19031;51.400;6.770;2022-11-15T15:14:24;13.90;10.80
32614;DHT22;19031;51.400;6.770;2022-11-15T15:16:50;13.90;10.00
32614;DHT22;19031;51.400;6.770;2022-11-15T15:19:16;13.80;14.30
32614;DHT22;19031;51.400;6.770;2022-11-15T15:21:41;13.80;14.80
32614;DHT22;19031;51.400;6.770;2022-11-15T15:24:09;13.80;15.70
32614;DHT22;19031;51.400;6.770;2022-11-15T15:26:38;13.80;16.10
32614;DHT22;19031;51.400;6.770;2022-11-15T15:29:06;13.80;14.20
32614;DHT22;19031;51.400;6.770;2022-11-15T15:31:34;13.80;20.10
32614;DHT22;19031;51.400;6.770;2022-11-15T15:33:59;13.70;20.90
32614;DHT22;19031;51.400;6.770;2022-11-15T15:36:25;13.70;21.20
32614;DHT22;19031;51.400;6.770;2022-11-15T15:38:51;13.70;22.00
32614;DHT22;19031;51.400;6.770;2022-11-15T15:41:17;13.60;26.20
32614;DHT22;19031;51.400;6.770;2022-11-15T15:43:43;13.60;29.00
32614;DHT22;19031;51.400;6.770;2022-11-15T15:46:14;13.70;29.50
32614;DHT22;19031;51.400;6.770;2022-11-15T15:48:40;13.60;27.20
32614;DHT22;19031;51.400;6.770;2022-11-15T15:51:06;13.60;29.10
32614;DHT22;19031;51.400;6.770;2022-11-15T15:53:32;13.50;29.70
32614;DHT22;19031;51.400;6.770;2022-11-15T15:55:57;13.60;32.70
32614;DHT22;19031;51.400;6.770;2022-11-15T15:58:23;13.60;29.20
32614;DHT22;19031;51.400;6.770;2022-11-15T16:00:48;13.50;32.70
32614;DHT22;19031;51.400;6.770;2022-11-15T16:03:14;13.50;30.90
32614;DHT22;19031;51.400;6.770;2022-11-15T16:05:39;13.50;32.80
32614;DHT22;19031;51.400;6.770;2022-11-15T16:08:05;13.50;33.50
32614;DHT22;19031;51.400;6.770;2022-11-15T16:10:31;13.50;33.20
32614;DHT22;19031;51.400;6.770;2022-11-15T16:12:57;13.50;35.30
32614;DHT22;19031;51.400;6.770;2022-11-15T16:15:24;13.40;35.60
32614;DHT22;19031;51.400;6.770;2022-11-15T16:17:50;13.50;34.70
32614;DHT22;19031;51.400;6.770;2022-11-15T16:23:14;13.50;38.10
32614;DHT22;19031;51.400;6.770;2022-11-15T16:25:47;13.50;38.60
32614;DHT22;19031;51.400;6.770;2022-11-15T16:28:20;13.50;37.80
32614;DHT22;19031;51.400;6.770;2022-11-15T16:30:46;13.50;39.10
32614;DHT22;19031;51.400;6.770;2022-11-15T16:33:11;13.40;40.40
32614;DHT22;19031;51.400;6.770;2022-11-15T16:35:37;13.40;45.40
32614;DHT22;19031;51.400;6.770;2022-11-15T16:38:07;13.40;40.40
32614;DHT22;19031;51.400;6.770;2022-11-15T16:40:34;13.40;41.80
32614;DHT22;19031;51.400;6.770;2022-11-15T16:43:00;13.40;40.60
32614;DHT22;19031;51.400;6.770;2022-11-15T16:45:33;13.50;39.10
32614;DHT22;19031;51.400;6.770;2022-11-15T16:48:00;13.40;40.10
32614;DHT22;19031;51.400;6.770;2022-11-15T16:50:26;13.50;40.50
32614;DHT22;19031;51.400;6.770;2022-11-15T16:52:52;13.50;40.70
32614;DHT22;19031;51.400;6.770;2022-11-15T16:55:19;13.40;40.20
32614;DHT22;19031;51.400;6.770;2022-11-15T16:57:45;13.50;40.60
32614;DHT22;19031;51.400;6.770;2022-11-15T17:00:10;13.50;42.50
32614;DHT22;19031;51.400;6.770;2022-11-15T17:02:36;13.50;42.10
32614;DHT22;19031;51.400;6.770;2022-11-15T17:05:02;13.60;42.80
32614;DHT22;19031;51.400;6.770;2022-11-15T17:07:27;13.50;43.00
32614;DHT22;19031;51.400;6.770;2022-11-15T17:09:53;13.50;41.80
32614;DHT22;19031;51.400;6.770;2022-11-15T17:12:18;13.60;42.90
32614;DHT22;19031;51.400;6.770;2022-11-15T17:14:46;13.50;43.60
32614;DHT22;19031;51.400;6.770;2022-11-15T17:17:11;13.50;44.30
32614;DHT22;19031;51.400;6.770;2022-11-15T17:19:37;13.50;44.20
32614;DHT22;19031;51.400;6.770;2022-11-15T17:22:02;13.60;46.10
32614;DHT22;19031;51.400;6.770;2022-11-15T17:24:28;13.60;46.20